»·PEaware :: BOE727 KBFI-KBFI

BOE727 :: KBFI-KBFI

FLIGHT INFORMATION

Flight Status: Arrived
Operator:
Boeing Commercial Airplane Group
More flights by this operator :: More flights under this callsign
Pilot: Matthew M. (8235)
Aircraft: Unknown
(B727)
More flights by this aircraft type
Origin: KBFI Boeing Field/King Co Intl
United States
Destination: KBFI Boeing Field/King Co Intl
United States
More flights between these airports :: More routes between these airports
Route: +CBAIN1 BANGR MADEE HIDBU MADEE BOCAT CREEB GLASR SEA MODDA CASHS KS18G FABUL KS18G CASHS SEA
File this flight plan on PilotEdge
Remarks:
Altitude:
(Current/Filed)
33,000ft
Speed:
(Current/Filed)
474kts
Departed: 23-Dec-17 06:16 PM
Arrived: 23-Dec-17 07:48 PM
Distance/Time
Traveled:
1nm/1:32
Distance/Time
To Go:
Arrived

Flight Plot

Page will automatically refresh every two minutes.

Flight plan parsing failed; only flown route is shown


Map Options




Map Legend


Flown Route
Filed Route
Departure Airport
Arrival Airport
Navaid (VOR, NDB)
Fix

Horizontal Profiles

Position Reports

Time Latitude Longitude Heading Altitude Ground
Speed
23-Dec-17 17:54 47.538216 -122.312355 0 22ft 0kts
23-Dec-17 17:55 47.538216 -122.312355 240 22ft 0kts
23-Dec-17 17:56 47.538216 -122.312355 240 22ft 0kts
23-Dec-17 17:57 47.538216 -122.312355 240 22ft 0kts
23-Dec-17 17:58 47.538216 -122.312355 240 22ft 0kts
23-Dec-17 17:59 47.538216 -122.312355 240 22ft 0kts
23-Dec-17 18:00 47.538216 -122.312355 240 22ft 0kts
23-Dec-17 18:01 47.538216 -122.312355 240 22ft 0kts
23-Dec-17 18:02 47.538216 -122.312355 240 22ft 0kts
23-Dec-17 18:03 47.538216 -122.312355 240 22ft 0kts
23-Dec-17 18:04 47.538216 -122.312355 240 22ft 0kts
23-Dec-17 18:05 47.538216 -122.312355 240 22ft 0kts
23-Dec-17 18:06 47.538216 -122.312355 240 22ft 0kts
23-Dec-17 18:07 47.538216 -122.312355 240 22ft 0kts
23-Dec-17 18:08 47.538216 -122.312355 240 22ft 0kts
23-Dec-17 18:09 47.538216 -122.312355 240 22ft 0kts
23-Dec-17 18:10 47.538216 -122.312355 240 22ft 0kts
23-Dec-17 18:11 47.538216 -122.312355 240 22ft 0kts
23-Dec-17 18:12 47.538216 -122.312355 240 22ft 0kts
23-Dec-17 18:13 47.538216 -122.312355 240 22ft 0kts
23-Dec-17 18:14 47.538216 -122.312355 240 22ft 0kts
23-Dec-17 18:15 47.538216 -122.312355 240 22ft 0kts
23-Dec-17 18:16 47.537304 -122.312467 152 22ft 15kts
23-Dec-17 18:17 47.533578 -122.309076 150 22ft 12kts
23-Dec-17 18:18 47.531800 -122.305536 149 22ft 17kts
23-Dec-17 18:19 47.526397 -122.300956 151 23ft 23kts
23-Dec-17 18:20 47.520594 -122.296113 150 24ft 22kts
23-Dec-17 18:21 47.516570 -122.292258 86 27ft 7kts
23-Dec-17 18:22 47.526784 -122.299727 331 119ft 159kts
23-Dec-17 18:23 47.569972 -122.335620 330 2046ft 205kts
23-Dec-17 18:24 47.627906 -122.385455 330 2186ft 247kts
23-Dec-17 18:25 47.666935 -122.456875 269 7244ft 253kts
23-Dec-17 18:26 47.662387 -122.562508 269 11758ft 270kts
23-Dec-17 18:27 47.656967 -122.668017 271 15007ft 294kts
23-Dec-17 18:28 47.670120 -122.788760 310 15094ft 312kts
23-Dec-17 18:29 47.743268 -122.835488 1 19515ft 307kts
23-Dec-17 18:30 47.825136 -122.783708 17 22883ft 336kts
23-Dec-17 18:31 47.908813 -122.722741 15 25871ft 353kts
23-Dec-17 18:32 47.997994 -122.657514 13 28475ft 370kts
23-Dec-17 18:33 48.090137 -122.589471 11 31878ft 355kts
23-Dec-17 18:34 48.174748 -122.526850 9 33092ft 338kts
23-Dec-17 18:35 48.255976 -122.491728 341 33041ft 289kts
23-Dec-17 18:36 48.320805 -122.535722 311 33036ft 244kts
23-Dec-17 18:37 48.351279 -122.619698 287 33051ft 243kts
23-Dec-17 18:38 48.356095 -122.727790 281 33058ft 274kts
23-Dec-17 18:39 48.359992 -122.847990 280 33054ft 305kts
23-Dec-17 18:40 48.364051 -122.980848 278 33051ft 335kts
23-Dec-17 18:41 48.411430 -123.086884 337 32997ft 351kts
23-Dec-17 18:42 48.491070 -122.994492 68 33020ft 460kts
23-Dec-17 18:43 48.440852 -122.825822 138 33027ft 458kts
23-Dec-17 18:44 48.367628 -122.681447 104 33051ft 429kts
23-Dec-17 18:45 48.348631 -122.512447 83 33038ft 410kts
23-Dec-17 18:46 48.343512 -122.334685 81 33033ft 454kts
23-Dec-17 18:47 48.339518 -122.143574 92 33021ft 508kts
23-Dec-17 18:48 48.307409 -121.927318 97 33037ft 558kts
23-Dec-17 18:49 48.271965 -121.695405 98 33010ft 585kts
23-Dec-17 18:50 48.235693 -121.462049 99 33014ft 575kts
23-Dec-17 18:51 48.134479 -121.305616 172 33029ft 543kts
23-Dec-17 18:52 47.992276 -121.247937 174 32999ft 516kts
23-Dec-17 18:53 47.868929 -121.245960 218 32981ft 405kts
23-Dec-17 18:54 47.798724 -121.341445 257 32983ft 303kts
23-Dec-17 18:55 47.760332 -121.446406 258 32984ft 279kts
23-Dec-17 18:56 47.724094 -121.544566 258 32979ft 268kts
23-Dec-17 18:57 47.687817 -121.642559 258 32981ft 277kts
23-Dec-17 18:58 47.650262 -121.743191 256 32995ft 296kts
23-Dec-17 18:59 47.608890 -121.853299 255 32995ft 316kts
23-Dec-17 19:00 47.565096 -121.969369 254 33001ft 336kts
23-Dec-17 19:01 47.499299 -122.073586 207 33038ft 435kts
23-Dec-17 19:02 47.384625 -121.992995 118 33011ft 528kts
23-Dec-17 19:03 47.382107 -121.830984 46 33029ft 466kts
23-Dec-17 19:04 47.427666 -121.611577 81 33011ft 531kts
23-Dec-17 19:05 47.424827 -121.392024 83 33009ft 549kts
23-Dec-17 19:06 47.421536 -121.207629 84 33009ft 554kts
23-Dec-17 19:07 47.416532 -120.942198 83 33025ft 560kts
23-Dec-17 19:08 47.411821 -120.716161 83 33015ft 556kts
23-Dec-17 19:09 47.412776 -120.534445 63 33009ft 515kts
23-Dec-17 19:10 47.489140 -120.394360 12 33092ft 404kts
23-Dec-17 19:11 47.598788 -120.310486 13 33071ft 392kts
23-Dec-17 19:12 47.677690 -120.249754 12 33071ft 381kts
23-Dec-17 19:13 47.769766 -120.178649 12 33068ft 369kts
23-Dec-17 19:14 47.859368 -120.117337 356 33073ft 330kts
23-Dec-17 19:15 47.938532 -120.134069 325 33075ft 275kts
23-Dec-17 19:16 47.988798 -120.206930 301 33066ft 256kts
23-Dec-17 19:17 48.004119 -120.307818 282 33067ft 258kts
23-Dec-17 19:18 48.005481 -120.413105 282 33063ft 253kts
23-Dec-17 19:19 48.006843 -120.515871 287 33066ft 238kts
23-Dec-17 19:20 48.052474 -120.554123 2 33046ft 255kts
23-Dec-17 19:21 48.062076 -120.431696 133 33095ft 389kts
23-Dec-17 19:22 48.000487 -120.314500 83 33099ft 357kts
23-Dec-17 19:23 47.968935 -120.172623 136 33088ft 389kts
23-Dec-17 19:24 47.877033 -120.115843 201 33037ft 352kts
23-Dec-17 19:25 47.791900 -120.162537 227 33095ft 341kts
23-Dec-17 19:26 47.702666 -120.232404 224 33090ft 392kts
23-Dec-17 19:27 47.600371 -120.311056 222 32947ft 440kts
23-Dec-17 19:28 47.491589 -120.393782 222 33081ft 451kts
23-Dec-17 19:29 47.417356 -120.513509 263 33080ft 383kts
23-Dec-17 19:30 47.410591 -120.660205 279 33055ft 368kts
23-Dec-17 19:31 47.413540 -120.794379 279 33040ft 377kts
23-Dec-17 19:32 47.416698 -120.948896 279 33040ft 385kts
23-Dec-17 19:33 47.419246 -121.095993 278 32747ft 349kts
23-Dec-17 19:34 47.421716 -121.226336 277 31268ft 349kts
23-Dec-17 19:35 47.424007 -121.362109 278 29319ft 348kts
23-Dec-17 19:36 47.426014 -121.491319 279 27468ft 347kts
23-Dec-17 19:37 47.428063 -121.632629 279 25554ft 344kts
23-Dec-17 19:38 47.429843 -121.767960 278 23817ft 343kts
23-Dec-17 19:39 47.431477 -121.903851 277 22128ft 342kts
23-Dec-17 19:40 47.387634 -122.021075 226 16892ft 367kts
23-Dec-17 19:41 47.316354 -122.112837 225 15982ft 349kts
23-Dec-17 19:42 47.248648 -122.198832 225 15903ft 311kts
23-Dec-17 19:43 47.182836 -122.263863 184 13816ft 304kts
23-Dec-17 19:44 47.134271 -122.192469 79 10046ft 267kts
23-Dec-17 19:45 47.149454 -122.087806 68 7403ft 267kts
23-Dec-17 19:46 47.207561 -122.046682 349 6939ft 248kts
23-Dec-17 19:47 47.270589 -122.084138 329 5962ft 257kts
23-Dec-17 19:48 47.332591 -122.136334 329 4492ft 284kts
23-Dec-17 19:49 47.393557 -122.187589 330 2926ft 211kts
23-Dec-17 19:50 47.435838 -122.223027 330 2280ft 139kts
23-Dec-17 19:51 47.466240 -122.248610 330 1305ft 124kts
23-Dec-17 19:52 47.495964 -122.273601 328 584ft 124kts
23-Dec-17 19:53 47.525414 -122.298592 330 26ft 104kts
23-Dec-17 19:54 47.533227 -122.308050 258 22ft 9kts
23-Dec-17 19:55 47.538338 -122.313464 331 22ft 2kts
23-Dec-17 19:56 47.538140 -122.312547 246 22ft 2kts

Navigation Log

Ident Type
Flight plan parsing failed, navigation log unavailable